Time;durP1;ratioP1;P1;durP2;ratioP2;P2;SDS_P1;SDS_P2;PMS_P1;PMS_P2;Temp;Humidity;BMP_temperature;BMP_pressure;BME280_temperature;BME280_humidity;BME280_pressure;Samples;Min_cycle;Max_cycle;Signal;HPM_P1;HPM_P2
2022/12/05 00:01:20;;;;;;;28.13;15.38;;;5.10;99.90;;;;;;5096016;28;20115;-75
2022/12/05 00:03:47;;;;;;;26.10;14.70;;;4.80;99.90;;;;;;5085467;28;20032;-75
2022/12/05 00:06:14;;;;;;;27.95;15.07;;;5.80;99.90;;;;;;5095617;28;20111;-75
2022/12/05 00:08:39;;;;;;;27.02;15.85;;;4.80;99.90;;;;;;5093407;28;20119;-75
2022/12/05 00:11:11;;;;;;;29.67;15.98;;;5.30;99.90;;;;;;5075322;28;20132;-76
2022/12/05 00:13:39;;;;;;;28.80;15.70;;;6.40;99.90;;;;;;5094945;28;20055;-75
2022/12/05 00:16:07;;;;;;;26.88;14.88;;;4.90;99.90;;;;;;5093270;28;20409;-75
2022/12/05 00:18:33;;;;;;;27.30;15.75;;;4.90;99.90;;;;;;5097281;28;20441;-75
2022/12/05 00:20:59;;;;;;;25.88;14.63;;;4.80;99.90;;;;;;5094333;28;20032;-75
2022/12/05 00:23:24;;;;;;;25.25;14.50;;;5.20;99.90;;;;;;5053845;28;1183800;-75
2022/12/05 00:25:50;;;;;;;30.55;15.63;;;6.40;99.90;;;;;;5065046;28;20052;-75
2022/12/05 00:28:16;;;;;;;27.23;15.27;;;4.90;99.90;;;;;;5095277;28;20089;-74
2022/12/05 00:30:42;;;;;;;29.40;16.23;;;5.40;99.90;;;;;;5079420;28;22514;-75
2022/12/05 00:33:10;;;;;;;29.95;16.85;;;4.90;99.90;;;;;;5043786;28;20064;-74
2022/12/05 00:35:36;;;;;;;31.77;16.92;;;5.20;99.90;;;;;;5043496;28;20350;-75
2022/12/05 00:38:02;;;;;;;29.55;16.95;;;6.80;99.90;;;;;;5057967;28;20428;-75
2022/12/05 00:40:27;;;;;;;28.27;16.20;;;5.00;99.90;;;;;;5070145;28;20413;-75
2022/12/05 00:42:53;;;;;;;32.65;17.42;;;5.80;99.90;;;;;;5072495;28;20040;-75
2022/12/05 00:45:19;;;;;;;29.92;17.08;;;5.00;99.90;;;;;;5058351;28;20044;-76
2022/12/05 00:47:45;;;;;;;32.63;17.90;;;5.00;99.90;;;;;;5073843;28;20057;-74
2022/12/05 00:50:10;;;;;;;34.85;18.58;;;6.70;99.90;;;;;;5074359;28;20036;-76
2022/12/05 00:52:36;;;;;;;32.50;18.55;;;6.70;99.90;;;;;;5073837;28;20051;-76
2022/12/05 00:55:02;;;;;;;33.15;17.50;;;;;;;;;;5058658;28;20048;-75
2022/12/05 00:57:28;;;;;;;33.35;17.75;;;5.10;99.90;;;;;;5083600;28;20036;-74
2022/12/05 00:59:54;;;;;;;31.88;17.27;;;5.10;99.90;;;;;;5074604;28;20114;-76
2022/12/05 01:02:20;;;;;;;33.78;18.83;;;5.10;99.90;;;;;;5072058;28;20040;-75
2022/12/05 01:04:45;;;;;;;31.70;17.35;;;5.10;99.90;;;;;;5074609;28;20493;-75
2022/12/05 01:07:11;;;;;;;31.13;16.73;;;5.90;99.90;;;;;;5043885;28;20489;-75
2022/12/05 01:09:39;;;;;;;32.30;16.17;;;5.20;99.90;;;;;;5055576;28;20047;-75
2022/12/05 01:12:06;;;;;;;30.83;16.55;;;5.10;99.90;;;;;;5067401;28;20094;-75
2022/12/05 01:14:31;;;;;;;32.42;16.25;;;5.20;99.90;;;;;;5071663;28;20051;-75
2022/12/05 01:17:00;;;;;;;28.38;15.88;;;5.30;99.90;;;;;;5054660;28;20032;-75
2022/12/05 01:19:28;;;;;;;25.35;14.85;;;3.50;99.90;;;;;;5065049;28;20072;-76
2022/12/05 01:21:55;;;;;;;28.08;15.20;;;5.20;99.90;;;;;;5073027;28;20074;-75
2022/12/05 01:24:22;;;;;;;25.73;14.88;;;5.50;99.90;;;;;;5074884;28;20138;-74
2022/12/05 01:26:48;;;;;;;26.55;15.77;;;4.60;99.90;;;;;;5073061;28;20097;-75
2022/12/05 01:29:16;;;;;;;25.50;14.57;;;5.80;99.90;;;;;;5042791;28;20044;-75
2022/12/05 01:31:43;;;;;;;25.38;13.63;;;5.30;99.90;;;;;;5072495;28;20383;-75
2022/12/05 01:34:14;;;;;;;22.08;12.90;;;5.30;99.90;;;;;;5072464;28;20039;-75
2022/12/05 01:36:40;;;;;;;21.70;12.88;;;5.30;99.90;;;;;;5072890;28;20083;-75
2022/12/05 01:39:07;;;;;;;25.13;12.80;;;5.40;99.90;;;;;;5056193;28;20040;-75
2022/12/05 01:41:36;;;;;;;21.05;12.05;;;5.40;99.90;;;;;;5070724;28;20043;-75
2022/12/05 01:44:06;;;;;;;19.70;12.10;;;5.40;99.90;;;;;;5073824;28;20443;-75
2022/12/05 01:46:35;;;;;;;22.92;11.75;;;4.80;99.90;;;;;;5055846;28;20448;-75
2022/12/05 01:49:16;;;;;;;18.13;10.98;;;5.40;99.90;;;;;;5074960;28;20045;-75
2022/12/05 01:51:46;;;;;;;20.58;11.68;;;5.50;99.90;;;;;;5073163;28;20474;-75
2022/12/05 01:54:13;;;;;;;20.25;11.73;;;5.50;99.90;;;;;;5070315;28;20127;-74
2022/12/05 01:56:43;;;;;;;21.25;11.93;;;5.50;99.90;;;;;;5072126;28;20468;-75
2022/12/05 01:59:11;;;;;;;21.67;11.38;;;5.50;99.90;;;;;;5053265;28;20045;-75
2022/12/05 02:01:38;;;;;;;18.60;11.02;;;5.50;99.90;;;;;;5071808;28;20102;-75
2022/12/05 02:04:04;;;;;;;19.33;10.80;;;5.50;99.90;;;;;;5069024;28;20293;-74
2022/12/05 02:06:31;;;;;;;19.30;11.52;;;5.50;99.90;;;;;;5070279;28;20494;-75
2022/12/05 02:08:57;;;;;;;18.23;11.00;;;5.50;99.90;;;;;;5070600;28;20051;-75
2022/12/05 02:11:27;;;;;;;17.00;10.07;;;5.60;99.90;;;;;;5072811;28;20098;-75
2022/12/05 02:14:15;;;;;;;17.90;10.10;;;6.10;99.90;;;;;;5056702;28;20052;-75
2022/12/05 02:17:05;;;;;;;17.77;9.90;;;5.50;99.90;;;;;;5055853;28;20054;-74
2022/12/05 02:19:37;;;;;;;18.17;10.00;;;5.50;99.90;;;;;;5061999;28;20055;-75
2022/12/05 02:22:57;;;;;;;18.15;9.93;;;5.70;99.90;;;;;;5072937;28;20055;-75
2022/12/05 02:25:38;;;;;;;17.00;9.77;;;5.60;99.90;;;;;;5037789;28;20258;-74
2022/12/05 02:28:41;;;;;;;19.58;10.25;;;5.50;99.90;;;;;;5071563;28;20047;-75
2022/12/05 02:31:15;;;;;;;18.48;10.23;;;5.50;99.90;;;;;;5075476;28;20040;-75
2022/12/05 02:34:14;;;;;;;15.48;8.65;;;5.50;99.90;;;;;;5073047;28;20504;-73
2022/12/05 02:36:50;;;;;;;16.25;8.82;;;5.50;99.90;;;;;;5072875;28;20134;-75
2022/12/05 02:39:27;;;;;;;16.15;9.48;;;6.10;99.90;;;;;;5066639;28;20064;-75
2022/12/05 02:42:09;;;;;;;16.70;9.75;;;5.50;99.90;;;;;;5058532;28;20642;-74
2022/12/05 02:44:47;;;;;;;16.70;9.35;;;5.50;99.90;;;;;;5070791;28;20071;-75
2022/12/05 02:47:16;;;;;;;16.80;9.10;;;5.50;99.90;;;;;;5072010;28;20040;-75
2022/12/05 02:49:42;;;;;;;16.70;8.90;;;5.50;99.90;;;;;;5070158;28;20055;-74
2022/12/05 02:52:11;;;;;;;14.43;8.35;;;5.40;99.90;;;;;;5071802;28;20045;-75
2022/12/05 02:54:41;;;;;;;16.65;9.07;;;5.50;99.90;;;;;;5070351;28;20486;-75
2022/12/05 02:57:08;;;;;;;15.02;8.65;;;5.40;99.90;;;;;;5072666;28;20029;-74
2022/12/05 02:59:35;;;;;;;15.35;8.52;;;6.30;99.90;;;;;;5060770;28;20112;-75
2022/12/05 03:02:01;;;;;;;15.20;8.55;;;5.40;99.90;;;;;;5075556;28;20036;-74
2022/12/05 03:04:28;;;;;;;17.70;9.18;;;5.50;99.90;;;;;;5075240;28;20062;-75
2022/12/05 03:07:02;;;;;;;16.75;8.85;;;5.40;99.90;;;;;;5076600;28;20075;-75
2022/12/05 03:09:36;;;;;;;16.25;9.00;;;5.40;99.90;;;;;;5076771;28;20048;-75
2022/12/05 03:12:11;;;;;;;15.00;8.10;;;5.40;99.90;;;;;;5074387;28;20055;-75
2022/12/05 03:15:01;;;;;;;16.15;8.70;;;5.40;99.90;;;;;;5074457;28;20044;-74
2022/12/05 03:17:34;;;;;;;16.08;9.00;;;5.40;99.90;;;;;;5076555;28;20618;-75
2022/12/05 03:20:09;;;;;;;15.85;8.48;;;5.40;99.90;;;;;;5059237;28;20097;-75
2022/12/05 03:22:48;;;;;;;14.90;8.38;;;5.40;99.90;;;;;;5077253;28;20037;-75
2022/12/05 03:25:15;;;;;;;15.52;8.65;;;5.40;99.90;;;;;;5075720;28;20451;-75
2022/12/05 03:28:15;;;;;;;18.25;9.13;;;5.40;99.90;;;;;;5058532;28;20041;-74
2022/12/05 03:30:41;;;;;;;16.80;8.82;;;5.40;99.90;;;;;;5076986;28;20119;-76
2022/12/05 03:33:23;;;;;;;14.82;8.10;;;5.90;99.90;;;;;;5078853;28;20408;-74
2022/12/05 03:36:10;;;;;;;14.85;7.97;;;6.00;99.90;;;;;;5074377;28;20159;-75
2022/12/05 03:39:00;;;;;;;13.57;7.90;;;5.40;99.90;;;;;;5074137;28;20052;-75
2022/12/05 03:41:41;;;;;;;16.50;8.00;;;5.40;99.90;;;;;;5080841;28;20158;-75
2022/12/05 03:44:20;;;;;;;14.07;7.70;;;5.40;99.90;;;;;;5074951;28;20040;-74
2022/12/05 03:46:58;;;;;;;14.25;7.90;;;5.30;99.90;;;;;;5073668;28;20036;-74
2022/12/05 03:49:31;;;;;;;14.20;7.82;;;5.60;99.90;;;;;;5071236;28;20040;-74
2022/12/05 03:52:12;;;;;;;15.13;7.72;;;6.20;99.90;;;;;;5079482;28;20063;-75
2022/12/05 03:54:45;;;;;;;17.20;8.80;;;5.40;99.90;;;;;;5057489;28;20133;-75
2022/12/05 03:57:26;;;;;;;15.07;7.72;;;5.40;99.90;;;;;;5057632;28;20481;-75
2022/12/05 04:00:04;;;;;;;15.40;8.40;;;5.40;99.90;;;;;;5071821;28;20040;-75
2022/12/05 04:02:54;;;;;;;16.20;8.35;;;5.40;99.90;;;;;;5080922;28;20047;-75
2022/12/05 04:05:31;;;;;;;14.55;8.15;;;5.40;99.90;;;;;;5031365;28;20123;-75
2022/12/05 04:08:02;;;;;;;15.30;8.15;;;5.40;99.90;;;;;;5085515;28;20590;-75
2022/12/05 04:10:47;;;;;;;14.63;7.63;;;5.40;99.90;;;;;;5079600;28;20066;-75
2022/12/05 04:13:18;;;;;;;15.45;8.18;;;6.20;99.90;;;;;;5069272;28;20119;-75
2022/12/05 04:19:08;;;;;;;;;;;5.30;99.90;;;;;;5075000;28;20048;-74
2022/12/05 04:21:39;;;;;;;16.55;7.57;;;5.40;99.90;;;;;;5081397;28;20400;-75
2022/12/05 04:27:32;;;;;;;14.77;7.85;;;6.00;99.90;;;;;;5071590;28;20462;-75
2022/12/05 04:30:10;;;;;;;16.23;8.23;;;5.30;99.90;;;;;;5069678;28;20128;-74
2022/12/05 04:32:58;;;;;;;16.13;8.38;;;5.40;99.90;;;;;;5077076;28;20044;-74
2022/12/05 04:35:45;;;;;;;16.13;8.32;;;5.40;99.90;;;;;;5084665;28;20068;-75
2022/12/05 04:38:22;;;;;;;14.80;7.60;;;5.40;99.90;;;;;;5083382;28;20028;-76
2022/12/05 04:41:02;;;;;;;18.38;7.25;;;5.40;99.90;;;;;;5085265;28;20040;-75
2022/12/05 04:43:31;;;;;;;15.32;7.93;;;5.40;99.90;;;;;;5071657;28;20119;-74
2022/12/05 04:45:58;;;;;;;16.02;7.90;;;5.40;99.90;;;;;;5069466;28;20126;-74
2022/12/05 04:48:26;;;;;;;15.57;8.63;;;5.30;99.90;;;;;;5069793;28;20036;-75
2022/12/05 04:50:54;;;;;;;16.42;8.02;;;5.40;99.90;;;;;;5070000;28;20353;-74
2022/12/05 04:53:24;;;;;;;16.48;8.65;;;6.00;99.90;;;;;;5071998;28;20062;-75
2022/12/05 04:55:53;;;;;;;16.15;8.10;;;5.60;99.90;;;;;;5056884;28;20087;-74
2022/12/05 04:58:21;;;;;;;15.55;8.50;;;5.40;99.90;;;;;;5051514;28;20044;-74
2022/12/05 05:01:06;;;;;;;15.20;8.10;;;5.40;99.90;;;;;;5074843;28;20135;-75
2022/12/05 05:03:47;;;;;;;15.73;8.25;;;5.30;99.90;;;;;;5056545;28;20138;-74
2022/12/05 05:06:13;;;;;;;14.02;7.70;;;5.40;99.90;;;;;;5086034;28;20124;-74
2022/12/05 05:08:50;;;;;;;14.65;7.70;;;5.40;99.90;;;;;;5071430;28;20228;-75
2022/12/05 05:11:19;;;;;;;16.40;7.35;;;5.40;99.90;;;;;;5075500;28;20401;-75
2022/12/05 05:13:45;;;;;;;14.38;7.60;;;5.50;99.90;;;;;;5080598;28;20482;-75
2022/12/05 05:16:17;;;;;;;15.82;7.50;;;5.50;99.90;;;;;;5070103;28;20052;-75
2022/12/05 05:18:47;;;;;;;14.18;7.30;;;5.40;99.90;;;;;;5081026;28;22438;-74
2022/12/05 05:21:16;;;;;;;14.15;7.57;;;5.40;99.90;;;;;;5053678;28;20139;-75
2022/12/05 05:23:42;;;;;;;14.88;7.90;;;5.40;99.90;;;;;;5085516;28;20138;-76
2022/12/05 05:26:07;;;;;;;16.25;7.93;;;5.40;99.90;;;;;;5081364;28;20036;-74
2022/12/05 05:28:33;;;;;;;15.50;7.75;;;5.40;99.90;;;;;;5052731;28;20048;-74
2022/12/05 05:31:03;;;;;;;15.98;7.22;;;5.40;99.90;;;;;;5071248;28;20051;-74
2022/12/05 05:33:29;;;;;;;14.85;7.10;;;5.40;99.90;;;;;;5068366;28;20040;-75
2022/12/05 05:35:55;;;;;;;15.35;7.43;;;5.40;99.90;;;;;;5076924;28;20036;-76
2022/12/05 05:38:20;;;;;;;13.82;7.28;;;5.60;99.90;;;;;;5040514;28;20115;-75
2022/12/05 05:40:46;;;;;;;13.45;7.40;;;5.40;99.90;;;;;;5069407;28;20110;-76
2022/12/05 05:43:12;;;;;;;13.02;6.40;;;5.40;99.90;;;;;;5069087;28;20394;-75
2022/12/05 05:45:37;;;;;;;15.82;7.88;;;5.40;99.90;;;;;;5047858;28;20040;-76
2022/12/05 05:48:03;;;;;;;15.63;7.57;;;5.80;99.90;;;;;;5069140;28;20093;-75
2022/12/05 05:50:30;;;;;;;14.65;7.07;;;5.40;99.90;;;;;;5069133;28;20048;-74
2022/12/05 05:52:55;;;;;;;16.60;7.63;;;5.40;99.90;;;;;;5076685;28;20108;-74
2022/12/05 05:55:21;;;;;;;12.68;6.25;;;5.90;99.90;;;;;;5050882;28;20462;-75
2022/12/05 05:57:47;;;;;;;14.32;7.20;;;5.40;99.90;;;;;;5051626;28;20047;-74
2022/12/05 06:00:14;;;;;;;14.00;7.55;;;5.40;99.90;;;;;;5062084;28;20052;-74
2022/12/05 06:02:39;;;;;;;12.32;6.30;;;5.40;99.90;;;;;;5064686;28;20032;-74
2022/12/05 06:05:05;;;;;;;15.05;7.78;;;5.40;99.90;;;;;;5067432;28;20077;-74
2022/12/05 06:07:31;;;;;;;15.20;7.47;;;5.40;99.90;;;;;;5060538;28;20090;-74
2022/12/05 06:09:57;;;;;;;14.63;7.20;;;6.20;99.90;;;;;;5043907;28;20040;-76
2022/12/05 06:12:23;;;;;;;16.95;7.43;;;5.40;99.90;;;;;;5082903;28;20071;-75
2022/12/05 06:14:49;;;;;;;14.07;6.90;;;4.60;99.90;;;;;;5031025;28;20044;-75
2022/12/05 06:17:15;;;;;;;16.05;7.53;;;5.40;99.90;;;;;;5070286;28;20486;-73
2022/12/05 06:19:41;;;;;;;14.32;7.45;;;5.40;99.90;;;;;;5072557;28;20098;-75
2022/12/05 06:22:07;;;;;;;17.15;7.80;;;5.40;99.90;;;;;;5068534;28;20033;-75
2022/12/05 06:24:32;;;;;;;17.20;7.88;;;5.40;99.90;;;;;;5056287;28;20417;-75
2022/12/05 06:26:58;;;;;;;13.98;7.43;;;5.80;99.90;;;;;;5078756;28;20117;-75
2022/12/05 06:29:24;;;;;;;14.60;7.00;;;5.50;99.90;;;;;;5069407;28;20044;-75
2022/12/05 06:31:50;;;;;;;15.35;7.30;;;;;;;;;;5080144;28;20028;-74
2022/12/05 06:34:16;;;;;;;18.23;8.25;;;5.50;99.90;;;;;;5069766;28;20044;-75
2022/12/05 06:36:42;;;;;;;16.20;6.97;;;6.80;99.90;;;;;;5044279;28;20441;-75
2022/12/05 06:39:08;;;;;;;15.20;7.78;;;6.30;99.90;;;;;;5078262;28;20040;-74
2022/12/05 06:41:34;;;;;;;17.92;7.72;;;5.50;99.90;;;;;;5058016;28;20040;-75
2022/12/05 06:43:59;;;;;;;19.50;8.30;;;5.50;99.90;;;;;;5040894;28;20036;-74
2022/12/05 06:46:25;;;;;;;16.38;7.78;;;6.40;99.90;;;;;;5058634;28;20040;-74
2022/12/05 06:48:58;;;;;;;15.18;7.45;;;6.50;99.90;;;;;;5060660;28;20041;-75
2022/12/05 06:51:24;;;;;;;17.60;8.40;;;5.50;99.90;;;;;;5065615;28;20504;-75
2022/12/05 06:53:50;;;;;;;19.73;8.43;;;5.40;99.90;;;;;;5074611;28;20124;-76
2022/12/05 06:56:18;;;;;;;20.20;8.63;;;5.50;99.90;;;;;;5074330;28;20147;-75
2022/12/05 06:58:47;;;;;;;21.67;8.95;;;5.60;99.90;;;;;;5072015;28;21643;-76
2022/12/05 07:04:25;;;;;;;17.67;8.40;;;5.50;99.90;;;;;;5080981;28;20534;-74
2022/12/05 07:06:53;;;;;;;17.50;8.10;;;5.60;99.90;;;;;;5071639;28;20329;-73
2022/12/05 07:09:44;;;;;;;19.67;8.55;;;5.60;99.90;;;;;;5066371;28;20528;-75
2022/12/05 07:12:08;;;;;;;19.02;8.50;;;5.40;99.90;;;;;;5068014;28;20164;-75
2022/12/05 07:14:33;;;;;;;20.52;8.07;;;5.40;99.90;;;;;;5054543;28;20044;-75
2022/12/05 07:16:59;;;;;;;21.60;9.18;;;5.40;99.90;;;;;;5070833;28;20044;-76
2022/12/05 07:19:25;;;;;;;24.77;9.77;;;5.60;99.90;;;;;;5056432;28;20040;-76
2022/12/05 07:21:51;;;;;;;18.83;8.05;;;6.60;99.90;;;;;;5054240;28;20029;-75
2022/12/05 07:24:16;;;;;;;22.33;8.95;;;5.50;99.90;;;;;;5073773;28;20125;-76
2022/12/05 07:26:45;;;;;;;21.77;9.10;;;5.40;99.90;;;;;;5061251;28;20639;-75
2022/12/05 07:29:11;;;;;;;21.67;9.20;;;5.40;99.90;;;;;;5072905;28;20928;-75
2022/12/05 07:31:37;;;;;;;20.80;8.55;;;5.50;99.90;;;;;;5057874;28;20103;-75
2022/12/05 07:34:02;;;;;;;20.90;8.75;;;5.90;99.90;;;;;;5056611;28;20500;-77
2022/12/05 07:36:31;;;;;;;17.35;8.35;;;5.40;99.90;;;;;;5056088;28;20036;-75
2022/12/05 07:38:58;;;;;;;19.80;9.35;;;5.50;99.90;;;;;;5021813;28;20713;-76
2022/12/05 07:41:29;;;;;;;21.27;9.52;;;5.50;99.90;;;;;;5074884;28;20448;-75
2022/12/05 07:43:56;;;;;;;21.13;8.50;;;6.40;99.90;;;;;;5080465;28;20031;-75
2022/12/05 07:46:24;;;;;;;15.68;7.53;;;5.50;99.90;;;;;;5049981;28;20096;-76
2022/12/05 07:48:51;;;;;;;20.63;8.68;;;5.50;99.90;;;;;;5074614;28;20047;-75
2022/12/05 07:51:18;;;;;;;20.48;9.15;;;5.50;99.90;;;;;;5053530;28;20781;-75
2022/12/05 07:53:44;;;;;;;20.38;8.68;;;5.80;99.90;;;;;;5072780;28;20039;-75
2022/12/05 07:56:15;;;;;;;17.75;8.10;;;5.80;99.90;;;;;;5070142;28;20090;-75
2022/12/05 07:58:42;;;;;;;18.17;8.05;;;5.50;99.90;;;;;;5070580;28;20087;-75
2022/12/05 08:01:10;;;;;;;17.67;8.52;;;5.50;99.90;;;;;;5072500;28;20596;-74
2022/12/05 08:03:37;;;;;;;17.75;9.15;;;5.50;99.90;;;;;;5076800;28;20031;-74
2022/12/05 08:06:13;;;;;;;20.73;9.07;;;5.20;99.90;;;;;;5048740;28;20055;-74
2022/12/05 08:08:39;;;;;;;17.38;7.90;;;7.20;99.90;;;;;;5073516;28;20067;-75
2022/12/05 08:11:11;;;;;;;19.33;8.15;;;5.60;99.90;;;;;;5053319;28;20052;-74
2022/12/05 08:13:37;;;;;;;17.75;7.88;;;6.80;99.90;;;;;;5073633;28;20052;-75
2022/12/05 08:16:15;;;;;;;20.10;8.75;;;5.50;99.90;;;;;;5073199;28;20033;-75
2022/12/05 08:18:42;;;;;;;16.95;7.43;;;5.50;99.90;;;;;;5074377;28;20040;-76
2022/12/05 08:21:11;;;;;;;18.52;7.35;;;5.50;99.90;;;;;;5076572;28;20037;-74
2022/12/05 08:23:38;;;;;;;17.40;8.32;;;6.50;99.90;;;;;;5052708;28;20521;-76
2022/12/05 08:26:13;;;;;;;19.58;7.93;;;5.50;99.90;;;;;;5054602;28;20127;-75
2022/12/05 08:28:42;;;;;;;17.65;7.75;;;5.50;99.90;;;;;;5071265;28;20058;-75
2022/12/05 08:31:18;;;;;;;15.70;7.65;;;7.20;99.90;;;;;;5075723;28;20115;-76
2022/12/05 08:33:44;;;;;;;19.23;7.68;;;7.00;99.90;;;;;;5070862;28;20454;-75
2022/12/05 08:36:14;;;;;;;15.15;7.30;;;5.50;99.90;;;;;;5073200;28;20094;-76
2022/12/05 08:38:40;;;;;;;17.98;7.55;;;5.60;99.90;;;;;;5072500;28;20123;-75
2022/12/05 08:41:12;;;;;;;16.38;8.00;;;5.50;99.90;;;;;;5071980;28;20037;-75
2022/12/05 08:43:38;;;;;;;18.15;8.60;;;5.50;99.90;;;;;;5071168;28;20502;-75
2022/12/05 08:46:04;;;;;;;19.13;7.80;;;5.90;99.90;;;;;;5074900;28;20582;-75
2022/12/05 08:48:31;;;;;;;18.85;8.18;;;5.50;99.90;;;;;;5073807;28;20047;-75
2022/12/05 08:50:58;;;;;;;17.65;8.18;;;5.60;99.90;;;;;;5073862;28;20090;-76
2022/12/05 08:53:25;;;;;;;17.90;7.55;;;5.50;99.90;;;;;;5045297;28;20032;-76
2022/12/05 08:55:50;;;;;;;18.13;7.82;;;5.60;99.90;;;;;;5058748;28;20044;-75
2022/12/05 08:58:16;;;;;;;15.52;7.80;;;5.60;99.90;;;;;;5071626;28;21238;-76
2022/12/05 09:00:42;;;;;;;17.73;7.82;;;7.10;99.90;;;;;;5081390;28;20032;-75
2022/12/05 09:03:10;;;;;;;17.55;7.88;;;5.60;99.90;;;;;;5073882;28;20055;-75
2022/12/05 09:05:38;;;;;;;17.30;8.23;;;5.60;99.90;;;;;;5081325;28;20497;-76
2022/12/05 09:08:04;;;;;;;17.38;7.78;;;5.50;99.90;;;;;;5059966;28;20083;-75
2022/12/05 09:10:30;;;;;;;19.17;8.60;;;5.60;99.90;;;;;;5045160;28;20081;-75
2022/12/05 09:12:55;;;;;;;18.75;8.40;;;5.60;99.90;;;;;;5073476;28;20063;-75
2022/12/05 09:15:21;;;;;;;16.25;8.55;;;5.60;99.90;;;;;;5072209;28;20094;-75
2022/12/05 09:17:47;;;;;;;16.33;8.20;;;7.00;99.90;;;;;;5071513;28;20036;-76
2022/12/05 09:20:13;;;;;;;18.48;8.70;;;5.70;99.90;;;;;;5066959;28;20044;-75
2022/12/05 09:22:42;;;;;;;17.33;8.40;;;5.60;99.90;;;;;;5070979;28;20036;-75
2022/12/05 09:25:08;;;;;;;23.45;9.18;;;6.30;99.90;;;;;;5074583;28;20151;-75
2022/12/05 09:27:34;;;;;;;16.95;8.60;;;5.70;99.90;;;;;;5070799;28;20032;-75
2022/12/05 09:30:00;;;;;;;17.77;8.52;;;6.50;99.90;;;;;;5071922;28;20566;-76
2022/12/05 09:32:26;;;;;;;21.02;9.43;;;5.60;99.90;;;;;;5072115;28;20102;-76
2022/12/05 09:34:51;;;;;;;16.50;8.38;;;5.80;99.90;;;;;;5069129;28;20094;-76
2022/12/05 09:37:19;;;;;;;19.83;8.85;;;7.30;99.90;;;;;;5063115;28;20044;-74
2022/12/05 09:39:44;;;;;;;18.13;9.25;;;5.60;99.90;;;;;;5049954;28;20037;-76
2022/12/05 09:42:38;;;;;;;17.50;9.10;;;5.60;99.90;;;;;;5071656;28;20534;-74
2022/12/05 09:45:19;;;;;;;18.88;9.07;;;7.50;99.90;;;;;;5070732;28;20458;-75
2022/12/05 09:47:50;;;;;;;17.83;8.88;;;5.60;99.90;;;;;;5062841;28;20033;-75
2022/12/05 09:50:27;;;;;;;17.48;8.63;;;5.60;99.90;;;;;;5054170;28;20059;-75
2022/12/05 09:53:08;;;;;;;17.45;8.68;;;5.60;99.90;;;;;;5068368;28;20569;-76
2022/12/05 09:55:40;;;;;;;19.65;8.15;;;5.70;99.90;;;;;;5070518;28;20119;-77
2022/12/05 09:58:28;;;;;;;18.20;8.30;;;6.80;99.90;;;;;;5055184;28;20040;-75
2022/12/05 10:01:02;;;;;;;17.52;8.40;;;5.60;99.90;;;;;;5058977;28;20048;-75
2022/12/05 10:03:42;;;;;;;20.77;8.38;;;5.60;99.90;;;;;;5073000;28;20456;-75
2022/12/05 10:06:23;;;;;;;17.35;8.50;;;5.70;99.90;;;;;;5071886;28;20036;-75
2022/12/05 10:09:08;;;;;;;18.13;8.45;;;5.60;99.90;;;;;;5072318;28;20044;-75
2022/12/05 10:11:45;;;;;;;16.02;7.80;;;5.60;99.90;;;;;;5075061;28;20592;-75
2022/12/05 10:14:34;;;;;;;17.20;7.95;;;5.60;99.90;;;;;;5058266;28;20116;-75
2022/12/05 10:17:34;;;;;;;16.38;8.20;;;5.60;99.90;;;;;;5077367;28;20051;-75
2022/12/05 10:20:10;;;;;;;15.82;7.07;;;5.60;99.90;;;;;;5073406;28;20056;-75
2022/12/05 10:22:55;;;;;;;16.60;7.95;;;5.60;99.90;;;;;;5076033;28;20032;-76
2022/12/05 10:25:22;;;;;;;16.25;7.05;;;5.60;99.90;;;;;;5069888;28;20041;-75
2022/12/05 10:27:56;;;;;;;17.20;7.90;;;5.60;99.90;;;;;;5077832;28;20111;-76
2022/12/05 10:30:24;;;;;;;15.77;7.53;;;5.60;99.90;;;;;;5077089;28;20055;-75
2022/12/05 10:33:10;;;;;;;14.27;7.30;;;5.60;99.90;;;;;;5075621;28;20105;-75
2022/12/05 10:35:38;;;;;;;15.90;7.43;;;5.70;99.90;;;;;;5074037;28;20509;-75
2022/12/05 10:38:05;;;;;;;16.13;7.82;;;5.60;99.90;;;;;;5058645;28;20043;-75
2022/12/05 10:40:41;;;;;;;15.10;7.40;;;7.10;99.90;;;;;;5060304;28;20063;-75
2022/12/05 10:43:09;;;;;;;15.02;6.85;;;7.00;99.90;;;;;;5070678;28;20047;-74
2022/12/05 10:45:43;;;;;;;18.58;7.43;;;5.60;99.90;;;;;;5076079;28;21122;-75
2022/12/05 10:48:16;;;;;;;14.80;7.55;;;5.60;99.90;;;;;;5077493;28;20041;-76
2022/12/05 10:50:45;;;;;;;17.05;7.28;;;5.60;99.90;;;;;;5056834;28;20040;-75
2022/12/05 10:53:39;;;;;;;17.27;7.75;;;6.60;99.90;;;;;;5071792;28;20032;-75
2022/12/05 10:56:43;;;;;;;13.88;6.60;;;5.70;99.90;;;;;;5080797;28;20040;-75
2022/12/05 10:59:14;;;;;;;16.65;7.30;;;5.60;99.90;;;;;;5077471;28;20040;-75
2022/12/05 11:01:45;;;;;;;15.25;7.10;;;5.60;99.90;;;;;;5068320;28;20389;-74
2022/12/05 11:04:21;;;;;;;16.05;7.13;;;5.70;99.90;;;;;;5069451;28;20047;-75
2022/12/05 11:07:01;;;;;;;13.77;6.13;;;5.60;99.90;;;;;;5070809;28;20047;-76
2022/12/05 11:09:37;;;;;;;15.65;7.18;;;5.70;99.90;;;;;;5053322;28;20094;-75
2022/12/05 11:12:22;;;;;;;13.98;7.03;;;5.80;99.90;;;;;;5081829;28;20040;-75
2022/12/05 11:15:01;;;;;;;13.68;6.45;;;5.70;99.90;;;;;;5073864;28;20474;-76
2022/12/05 11:17:34;;;;;;;13.35;6.70;;;5.70;99.90;;;;;;5084581;28;20032;-75
2022/12/05 11:20:00;;;;;;;15.95;6.88;;;5.70;99.90;;;;;;5052844;28;20036;-76
2022/12/05 11:22:34;;;;;;;12.32;6.28;;;5.70;99.90;;;;;;5052346;28;20427;-75
2022/12/05 11:25:22;;;;;;;13.68;6.50;;;5.60;99.90;;;;;;5072537;28;20402;-75
2022/12/05 11:27:48;;;;;;;14.70;6.43;;;5.70;99.90;;;;;;5070366;28;20401;-75
2022/12/05 11:30:19;;;;;;;13.18;6.50;;;5.80;99.90;;;;;;5085908;28;20032;-75
2022/12/05 11:32:45;;;;;;;13.15;6.70;;;5.70;99.90;;;;;;5072761;28;20480;-75
2022/12/05 11:35:26;;;;;;;15.38;6.15;;;5.90;99.90;;;;;;5070073;28;20071;-76
2022/12/05 11:38:01;;;;;;;13.32;6.43;;;5.70;99.90;;;;;;5064147;28;20093;-75
2022/12/05 11:40:46;;;;;;;15.50;6.80;;;5.70;99.90;;;;;;5060784;28;20067;-75
2022/12/05 11:43:21;;;;;;;13.82;5.97;;;5.60;99.90;;;;;;5076481;28;20032;-75
2022/12/05 11:46:08;;;;;;;14.55;6.13;;;5.60;99.90;;;;;;5083934;28;20119;-76
2022/12/05 11:48:42;;;;;;;13.32;6.10;;;5.60;99.90;;;;;;5070567;28;20048;-76
2022/12/05 11:51:27;;;;;;;12.68;5.55;;;5.60;99.90;;;;;;5079617;28;20150;-74
2022/12/05 11:54:04;;;;;;;13.55;5.80;;;5.60;99.90;;;;;;5072349;28;20446;-74
2022/12/05 11:56:37;;;;;;;13.55;5.90;;;5.60;99.90;;;;;;5079298;28;20465;-76
2022/12/05 11:59:20;;;;;;;13.40;5.72;;;6.60;99.90;;;;;;5076002;28;20059;-75
2022/12/05 12:02:37;;;;;;;15.57;6.40;;;5.00;99.90;;;;;;5071801;28;20086;-75
2022/12/05 12:05:30;;;;;;;14.38;5.85;;;5.60;99.90;;;;;;5050828;28;20055;-75
2022/12/05 12:08:20;;;;;;;16.10;6.60;;;5.60;99.90;;;;;;5072857;28;20521;-75
2022/12/05 12:10:48;;;;;;;13.07;5.78;;;5.60;99.90;;;;;;5069784;28;20460;-75
2022/12/05 12:13:32;;;;;;;11.50;5.20;;;5.60;99.90;;;;;;5075584;28;20103;-75
2022/12/05 12:16:23;;;;;;;13.57;6.43;;;5.60;99.90;;;;;;5072906;28;20032;-75
2022/12/05 12:19:20;;;;;;;13.60;5.85;;;5.60;99.90;;;;;;5073006;28;20064;-75
2022/12/05 12:21:58;;;;;;;16.30;5.88;;;5.60;99.90;;;;;;5070652;28;20037;-75
2022/12/05 12:24:52;;;;;;;14.15;5.75;;;5.60;99.90;;;;;;5052564;28;20497;-75
2022/12/05 12:27:45;;;;;;;12.25;5.82;;;5.60;99.90;;;;;;5072531;28;20486;-74
2022/12/05 12:30:27;;;;;;;12.40;5.68;;;5.60;99.90;;;;;;5074275;28;20044;-75
2022/12/05 12:33:34;;;;;;;12.20;5.85;;;5.60;99.90;;;;;;5074301;28;20071;-75
2022/12/05 12:36:27;;;;;;;11.75;5.85;;;5.60;99.90;;;;;;5039972;28;20040;-76
2022/12/05 12:38:58;;;;;;;16.02;5.80;;;5.70;99.90;;;;;;5045338;28;20123;-75
2022/12/05 12:41:43;;;;;;;13.57;5.90;;;5.70;99.90;;;;;;5057959;28;20040;-75
2022/12/05 12:44:42;;;;;;;12.23;5.32;;;5.60;99.90;;;;;;5053046;28;20043;-74
2022/12/05 12:47:41;;;;;;;14.25;6.18;;;5.70;99.90;;;;;;5074138;28;20567;-76
2022/12/05 12:50:30;;;;;;;17.70;8.05;;;5.60;99.90;;;;;;5061558;28;20561;-76
2022/12/05 12:53:20;;;;;;;21.33;10.48;;;5.80;99.90;;;;;;5081459;28;20037;-74
2022/12/05 12:56:01;;;;;;;17.52;7.57;;;5.60;99.90;;;;;;5074706;28;20123;-75
2022/12/05 12:58:51;;;;;;;15.85;7.53;;;5.60;99.90;;;;;;5069545;28;20044;-74
2022/12/05 13:01:22;;;;;;;12.65;5.68;;;5.60;99.90;;;;;;5053411;28;20051;-74
2022/12/05 13:03:54;;;;;;;13.40;6.13;;;5.60;99.90;;;;;;5073639;28;20098;-74
2022/12/05 13:06:45;;;;;;;14.48;5.95;;;4.20;99.90;;;;;;5078180;28;20032;-75
2022/12/05 13:09:11;;;;;;;12.10;5.50;;;5.60;99.90;;;;;;5059850;28;20044;-74
2022/12/05 13:11:43;;;;;;;14.32;7.18;;;5.60;99.90;;;;;;5058297;28;20066;-74
2022/12/05 13:14:13;;;;;;;12.80;7.05;;;5.60;99.90;;;;;;5076918;28;20631;-75
2022/12/05 13:16:42;;;;;;;20.27;11.07;;;5.60;99.90;;;;;;5068353;28;20041;-75
2022/12/05 13:19:20;;;;;;;22.02;10.82;;;5.60;99.90;;;;;;5068284;28;20037;-74
2022/12/05 13:21:46;;;;;;;16.33;8.05;;;5.70;99.90;;;;;;5072172;28;20028;-75
2022/12/05 13:24:13;;;;;;;14.60;7.95;;;5.70;99.90;;;;;;5070003;28;20076;-77